createdAt,value
2023-02-05T00:00:22.253Z,8.80
2023-02-05T00:04:04.193Z,8.90
2023-02-05T00:07:46.085Z,8.90
2023-02-05T00:11:28.009Z,8.90
2023-02-05T00:15:10.030Z,8.90
2023-02-05T00:18:52.814Z,9.00
2023-02-05T00:22:34.615Z,9.00
2023-02-05T00:26:16.905Z,9.00
2023-02-05T00:29:58.718Z,9.00
2023-02-05T00:33:40.681Z,9.10
2023-02-05T00:37:22.479Z,9.10
2023-02-05T00:41:04.641Z,9.10
2023-02-05T00:44:46.490Z,9.10
2023-02-05T00:48:28.728Z,9.10
2023-02-05T00:52:10.620Z,9.10
2023-02-05T00:55:52.728Z,9.10
2023-02-05T00:59:34.641Z,9.20
2023-02-05T01:03:16.723Z,9.30
2023-02-05T01:06:58.546Z,9.30
2023-02-05T01:10:44.732Z,9.30
2023-02-05T01:14:26.552Z,9.30
2023-02-05T01:18:08.515Z,9.30
2023-02-05T01:21:50.334Z,9.30
2023-02-05T01:25:32.746Z,9.30
2023-02-05T01:29:14.812Z,9.20
2023-02-05T01:32:56.669Z,9.20
2023-02-05T01:36:38.452Z,9.20
2023-02-05T01:40:21.032Z,9.20
2023-02-05T01:44:08.751Z,9.20
2023-02-05T01:48:01.805Z,9.10
2023-02-05T01:51:45.368Z,9.20
2023-02-05T01:55:28.956Z,9.20
2023-02-05T01:59:15.573Z,9.10
2023-02-05T02:02:59.273Z,9.20
2023-02-05T02:06:41.312Z,9.10
2023-02-05T02:10:23.680Z,9.10
2023-02-05T02:14:08.049Z,9.10
2023-02-05T02:18:17.401Z,9.10
2023-02-05T02:21:59.138Z,9.00
2023-02-05T02:25:59.040Z,9.10
2023-02-05T02:30:02.572Z,9.10
2023-02-05T02:33:52.161Z,9.10
2023-02-05T02:37:44.440Z,9.00
2023-02-05T02:41:35.179Z,9.00
2023-02-05T02:45:18.216Z,9.00
2023-02-05T02:49:05.059Z,8.90
2023-02-05T02:52:49.643Z,8.90
2023-02-05T02:56:33.778Z,8.80
2023-02-05T03:00:25.878Z,8.70
2023-02-05T03:04:17.098Z,8.60
2023-02-05T03:08:03.262Z,8.50
2023-02-05T03:11:45.156Z,8.40
2023-02-05T03:15:26.976Z,8.20
2023-02-05T03:19:09.435Z,8.10
2023-02-05T03:22:51.469Z,8.00
2023-02-05T03:26:42.147Z,7.90
2023-02-05T03:30:29.937Z,7.90
2023-02-05T03:34:47.140Z,7.90
2023-02-05T03:38:37.546Z,7.80
2023-02-05T03:42:25.246Z,7.80
2023-02-05T03:46:33.052Z,7.80
2023-02-05T03:50:24.435Z,7.70
2023-02-05T03:54:20.121Z,7.60
2023-02-05T03:58:08.355Z,7.50
2023-02-05T04:01:50.700Z,7.40
2023-02-05T04:05:33.263Z,7.20
2023-02-05T04:09:15.527Z,7.10
2023-02-05T04:12:57.357Z,7.00
2023-02-05T04:16:39.173Z,6.90
2023-02-05T04:20:20.992Z,6.80
2023-02-05T04:24:03.207Z,6.70
2023-02-05T04:27:45.088Z,6.60
2023-02-05T04:31:27.116Z,6.50
2023-02-05T04:35:09.099Z,6.40
2023-02-05T04:38:50.874Z,6.30
2023-02-05T04:42:32.734Z,6.20
2023-02-05T04:46:14.561Z,6.10
2023-02-05T04:49:56.413Z,6.10
2023-02-05T04:53:38.571Z,6.00
2023-02-05T04:57:20.433Z,5.90
2023-02-05T05:01:02.472Z,5.80
2023-02-05T05:04:44.348Z,5.80
2023-02-05T05:08:26.278Z,5.70
2023-02-05T05:12:08.261Z,5.60
2023-02-05T05:15:57.019Z,5.60
2023-02-05T05:19:38.945Z,5.50
2023-02-05T05:23:20.797Z,5.50
2023-02-05T05:27:02.597Z,5.40
2023-02-05T05:30:46.175Z,5.40
2023-02-05T05:34:28.093Z,5.20
2023-02-05T05:38:09.980Z,5.20
2023-02-05T05:42:10.346Z,5.10
2023-02-05T05:45:52.937Z,5.10
2023-02-05T05:49:34.907Z,5.00
2023-02-05T05:53:16.954Z,5.00
2023-02-05T05:56:58.753Z,4.90
2023-02-05T06:00:41.606Z,4.80
2023-02-05T06:04:23.437Z,4.70
2023-02-05T06:08:05.555Z,4.70
2023-02-05T06:11:48.517Z,4.60
2023-02-05T06:15:30.304Z,4.50
2023-02-05T06:19:12.158Z,4.40
2023-02-05T06:22:53.956Z,4.40
2023-02-05T06:26:35.786Z,4.30
2023-02-05T06:30:17.749Z,4.20
2023-02-05T06:34:01.419Z,4.20
2023-02-05T06:37:47.570Z,4.10
2023-02-05T06:41:29.712Z,4.00
2023-02-05T06:45:11.696Z,4.00
2023-02-05T06:48:53.528Z,3.90
2023-02-05T06:52:35.547Z,3.90
2023-02-05T06:56:19.511Z,3.80
2023-02-05T07:00:01.379Z,3.70
2023-02-05T07:03:43.362Z,3.70
2023-02-05T07:07:25.320Z,3.60
2023-02-05T07:11:07.157Z,3.60
2023-02-05T07:14:48.958Z,3.60
2023-02-05T07:18:31.804Z,3.50
2023-02-05T07:22:14.521Z,3.50
2023-02-05T07:25:56.314Z,3.40
2023-02-05T07:29:38.108Z,3.40
2023-02-05T07:33:19.922Z,3.30
2023-02-05T07:37:01.752Z,3.30
2023-02-05T07:40:43.545Z,3.20
2023-02-05T07:44:25.450Z,3.20
2023-02-05T07:48:07.225Z,3.10
2023-02-05T07:51:49.129Z,3.10
2023-02-05T07:55:30.930Z,3.10
2023-02-05T07:59:12.958Z,3.10
2023-02-05T08:02:54.794Z,3.10
2023-02-05T08:06:36.686Z,3.10
2023-02-05T08:10:18.678Z,3.00
2023-02-05T08:14:01.574Z,3.10
2023-02-05T08:17:43.421Z,3.10
2023-02-05T08:21:25.327Z,3.10
2023-02-05T08:25:10.540Z,3.10
2023-02-05T08:28:52.319Z,3.10
2023-02-05T08:32:34.320Z,3.20
2023-02-05T08:36:16.282Z,3.20
2023-02-05T08:39:58.138Z,3.20
2023-02-05T08:43:45.321Z,3.30
2023-02-05T08:47:27.566Z,3.30
2023-02-05T08:51:11.536Z,3.40
2023-02-05T08:54:53.343Z,3.50
2023-02-05T08:58:35.320Z,3.50
2023-02-05T09:02:17.384Z,3.60
2023-02-05T09:06:00.010Z,3.70
2023-02-05T09:12:59.347Z,3.90
2023-02-05T09:16:41.720Z,3.90
2023-02-05T09:20:23.530Z,4.00
2023-02-05T09:24:05.583Z,4.10
2023-02-05T09:27:48.573Z,4.20
2023-02-05T09:31:30.533Z,4.40
2023-02-05T09:35:12.703Z,4.60
2023-02-05T09:39:11.807Z,4.90
2023-02-05T09:43:23.720Z,5.30
2023-02-05T09:47:09.292Z,5.90
2023-02-05T09:50:51.310Z,6.60
2023-02-05T09:54:40.612Z,7.30
2023-02-05T09:58:27.133Z,8.10
2023-02-05T10:02:24.767Z,9.00
2023-02-05T10:06:32.349Z,9.70
2023-02-05T10:10:24.254Z,10.20
2023-02-05T10:14:23.451Z,10.80
2023-02-05T10:18:31.531Z,11.60
2023-02-05T10:22:21.702Z,12.40
2023-02-05T10:26:09.509Z,13.00
2023-02-05T10:30:25.420Z,13.50
2023-02-05T10:34:18.840Z,14.00
2023-02-05T10:38:00.757Z,14.30
2023-02-05T10:41:48.053Z,14.40
2023-02-05T10:45:30.677Z,14.60
2023-02-05T10:49:20.232Z,15.00
2023-02-05T10:53:02.127Z,15.30
2023-02-05T10:56:44.298Z,15.50
2023-02-05T11:00:26.171Z,15.90
2023-02-05T11:04:14.075Z,16.20
2023-02-05T11:07:56.240Z,16.40
2023-02-05T11:11:38.886Z,16.20
2023-02-05T11:15:25.019Z,16.00
2023-02-05T11:19:19.952Z,15.90
2023-02-05T11:23:20.345Z,15.90
2023-02-05T11:27:27.703Z,15.90
2023-02-05T11:31:32.048Z,16.00
2023-02-05T11:35:30.421Z,16.40
2023-02-05T11:39:29.669Z,16.40
2023-02-05T11:43:27.530Z,16.70
2023-02-05T11:47:09.465Z,17.20
2023-02-05T11:50:51.325Z,17.40
2023-02-05T11:54:35.380Z,17.30
2023-02-05T11:58:36.578Z,17.00
2023-02-05T12:02:30.354Z,17.20
2023-02-05T12:06:20.480Z,17.40
2023-02-05T12:10:02.361Z,17.60
2023-02-05T12:14:10.381Z,18.00
2023-02-05T12:18:01.100Z,18.60
2023-02-05T12:21:49.089Z,19.10
2023-02-05T12:26:04.548Z,19.40
2023-02-05T12:30:03.509Z,19.60
2023-02-05T12:34:24.477Z,19.50
2023-02-05T12:38:32.754Z,19.20
2023-02-05T12:42:26.540Z,18.90
2023-02-05T12:46:52.839Z,18.70
2023-02-05T12:50:37.751Z,18.70
2023-02-05T12:54:48.465Z,19.00
2023-02-05T12:58:43.627Z,19.00
2023-02-05T13:02:36.148Z,18.90
2023-02-05T13:06:44.170Z,18.70
2023-02-05T13:10:39.606Z,18.50
2023-02-05T13:14:26.428Z,18.40
2023-02-05T13:18:20.407Z,18.40
2023-02-05T13:22:33.150Z,18.40
2023-02-05T13:26:36.314Z,18.40
2023-02-05T13:30:42.293Z,17.90
2023-02-05T13:34:24.485Z,17.60
2023-02-05T13:38:24.932Z,17.40
2023-02-05T13:42:24.877Z,17.10
2023-02-05T13:46:39.954Z,16.90
2023-02-05T13:50:27.869Z,16.80
2023-02-05T13:54:28.437Z,16.60
2023-02-05T13:58:10.239Z,16.50
2023-02-05T14:01:57.903Z,16.50
2023-02-05T14:05:42.807Z,16.40
2023-02-05T14:09:49.486Z,16.10
2023-02-05T14:13:34.191Z,15.90
2023-02-05T14:17:28.272Z,15.70
2023-02-05T14:21:31.916Z,15.40
2023-02-05T14:25:36.979Z,15.10
2023-02-05T14:29:48.192Z,14.80
2023-02-05T14:33:36.618Z,14.50
2023-02-05T14:37:32.622Z,14.30
2023-02-05T14:41:16.511Z,14.20
2023-02-05T14:45:00.767Z,14.30
2023-02-05T14:48:47.658Z,14.60
2023-02-05T14:52:46.314Z,14.90
2023-02-05T14:56:39.517Z,14.90
2023-02-05T15:00:32.135Z,14.80
2023-02-05T15:04:24.921Z,15.00
2023-02-05T15:08:12.808Z,15.20
2023-02-05T15:12:18.578Z,15.60
2023-02-05T15:16:12.652Z,15.60
2023-02-05T15:19:57.914Z,15.20
2023-02-05T15:23:48.991Z,14.80
2023-02-05T15:27:43.890Z,14.50
2023-02-05T15:31:33.907Z,14.10
2023-02-05T15:35:20.972Z,13.80
2023-02-05T15:39:06.053Z,13.50
2023-02-05T15:42:58.734Z,13.30
2023-02-05T15:46:40.764Z,13.30
2023-02-05T15:50:24.959Z,13.10
2023-02-05T15:54:17.464Z,12.90
2023-02-05T15:58:04.878Z,12.70
2023-02-05T16:02:10.424Z,12.50
2023-02-05T16:05:53.186Z,12.40
2023-02-05T16:09:35.268Z,12.20
2023-02-05T16:13:18.248Z,12.00
2023-02-05T16:17:28.399Z,11.90
2023-02-05T16:21:18.742Z,11.80
2023-02-05T16:25:05.379Z,11.90
2023-02-05T16:28:52.108Z,11.80
2023-02-05T16:32:43.091Z,11.80
2023-02-05T16:36:29.441Z,11.60
2023-02-05T16:40:12.469Z,11.40
2023-02-05T16:43:55.862Z,11.30
2023-02-05T16:47:37.918Z,11.10
2023-02-05T16:51:37.684Z,10.90
2023-02-05T16:55:25.321Z,10.70
2023-02-05T16:59:14.014Z,10.50
2023-02-05T17:02:59.415Z,10.30
2023-02-05T17:06:41.278Z,10.10
2023-02-05T17:10:23.366Z,9.90
2023-02-05T17:14:46.430Z,9.80
2023-02-05T17:18:31.254Z,9.60
2023-02-05T17:22:15.975Z,9.40
2023-02-05T17:25:57.890Z,9.30
2023-02-05T17:29:40.153Z,9.20
2023-02-05T17:33:24.449Z,9.00
2023-02-05T17:37:06.367Z,8.90
2023-02-05T17:40:48.243Z,8.80
2023-02-05T17:44:30.909Z,8.70
2023-02-05T17:48:13.355Z,8.60
2023-02-05T17:51:55.222Z,8.40
2023-02-05T17:55:37.035Z,8.30
2023-02-05T17:59:21.702Z,8.20
2023-02-05T18:03:03.741Z,8.00
2023-02-05T18:06:48.617Z,8.00
2023-02-05T18:10:32.263Z,7.80
2023-02-05T18:14:14.090Z,7.70
2023-02-05T18:17:55.895Z,7.70
2023-02-05T18:21:37.725Z,7.60
2023-02-05T18:25:19.646Z,7.50
2023-02-05T18:29:01.467Z,7.50
2023-02-05T18:32:43.298Z,7.40
2023-02-05T18:36:25.159Z,7.40
2023-02-05T18:40:07.437Z,7.30
2023-02-05T18:43:52.597Z,7.00
2023-02-05T18:47:34.451Z,6.80
2023-02-05T18:51:19.165Z,6.60
2023-02-05T18:55:00.964Z,6.60
2023-02-05T18:58:43.999Z,6.50
2023-02-05T19:02:26.497Z,6.40
2023-02-05T19:06:10.185Z,6.40
2023-02-05T19:09:52.148Z,6.30
2023-02-05T19:13:34.186Z,6.20
2023-02-05T19:17:16.818Z,6.30
2023-02-05T19:21:05.017Z,6.20
2023-02-05T19:24:46.815Z,6.20
2023-02-05T19:28:28.647Z,6.10
2023-02-05T19:32:10.821Z,6.00
2023-02-05T19:35:52.784Z,5.90
2023-02-05T19:39:34.666Z,5.90
2023-02-05T19:43:18.086Z,5.80
2023-02-05T19:46:59.954Z,5.70
2023-02-05T19:50:43.006Z,5.60
2023-02-05T19:54:24.830Z,5.40
2023-02-05T19:58:06.679Z,5.30
2023-02-05T20:01:49.806Z,5.20
2023-02-05T20:05:32.613Z,5.20
2023-02-05T20:09:16.631Z,5.10
2023-02-05T20:13:00.405Z,5.00
2023-02-05T20:16:45.088Z,4.90
2023-02-05T20:20:33.534Z,4.80
2023-02-05T20:24:16.453Z,4.60
2023-02-05T20:27:59.435Z,4.50
2023-02-05T20:31:44.868Z,4.40
2023-02-05T20:35:46.269Z,4.30
2023-02-05T20:39:30.443Z,4.20
2023-02-05T20:43:12.244Z,4.20
2023-02-05T20:46:54.667Z,4.10
2023-02-05T20:50:36.704Z,3.90
2023-02-05T20:54:18.950Z,3.80
2023-02-05T20:58:00.780Z,3.80
2023-02-05T21:01:42.820Z,3.70
2023-02-05T21:05:24.691Z,3.70
2023-02-05T21:09:07.505Z,3.60
2023-02-05T21:12:49.371Z,3.50
2023-02-05T21:16:33.648Z,3.40
2023-02-05T21:20:15.728Z,3.40
2023-02-05T21:24:03.352Z,3.30
2023-02-05T21:27:45.185Z,3.20
2023-02-05T21:31:35.059Z,3.20
2023-02-05T21:35:17.060Z,3.10
2023-02-05T21:38:58.976Z,3.10
2023-02-05T21:42:40.816Z,3.00
2023-02-05T21:46:24.251Z,2.90
2023-02-05T21:50:06.804Z,2.80
2023-02-05T21:53:51.145Z,2.70
2023-02-05T21:57:33.217Z,2.70
2023-02-05T22:01:20.851Z,2.60
2023-02-05T22:05:02.805Z,2.60
2023-02-05T22:08:48.079Z,2.50
2023-02-05T22:12:29.883Z,2.50
2023-02-05T22:16:14.966Z,2.40
2023-02-05T22:19:56.817Z,2.40
2023-02-05T22:23:40.008Z,2.30
2023-02-05T22:27:22.228Z,2.30
2023-02-05T22:31:06.914Z,2.20
2023-02-05T22:34:48.723Z,2.10
2023-02-05T22:38:31.846Z,2.10
2023-02-05T22:42:13.666Z,2.00
2023-02-05T22:45:55.503Z,2.00
2023-02-05T22:49:37.313Z,1.90
2023-02-05T22:53:19.098Z,1.90
2023-02-05T22:57:01.019Z,1.80
2023-02-05T23:00:42.908Z,1.80
2023-02-05T23:04:24.775Z,1.80
2023-02-05T23:08:06.577Z,1.70
2023-02-05T23:11:48.390Z,1.60
2023-02-05T23:15:30.460Z,1.60
2023-02-05T23:19:18.998Z,1.50
2023-02-05T23:23:00.801Z,1.50
2023-02-05T23:26:45.717Z,1.40
2023-02-05T23:30:27.568Z,1.30
2023-02-05T23:34:10.092Z,1.40
2023-02-05T23:37:51.877Z,1.30
2023-02-05T23:41:36.999Z,1.30
2023-02-05T23:45:18.931Z,1.20
2023-02-05T23:49:00.812Z,1.20
2023-02-05T23:52:42.628Z,1.10
2023-02-05T23:56:24.486Z,1.10
